sensor_id;sensor_type;location;lat;lon;timestamp;P1;durP1;ratioP1;P2;durP2;ratioP2
5121;SDS011;2563;52.242;7.956;2023-02-13T00:01:06;26.87;;;12.70;;
5121;SDS011;2563;52.242;7.956;2023-02-13T00:03:32;29.93;;;13.47;;
5121;SDS011;2563;52.242;7.956;2023-02-13T00:05:58;29.70;;;13.67;;
5121;SDS011;2563;52.242;7.956;2023-02-13T00:08:24;24.70;;;12.57;;
5121;SDS011;2563;52.242;7.956;2023-02-13T00:10:49;26.23;;;13.17;;
5121;SDS011;2563;52.242;7.956;2023-02-13T00:13:15;26.43;;;12.50;;
5121;SDS011;2563;52.242;7.956;2023-02-13T00:15:40;30.70;;;13.57;;
5121;SDS011;2563;52.242;7.956;2023-02-13T00:18:05;25.70;;;12.13;;
5121;SDS011;2563;52.242;7.956;2023-02-13T00:20:31;26.10;;;13.17;;
5121;SDS011;2563;52.242;7.956;2023-02-13T00:22:57;27.20;;;12.40;;
5121;SDS011;2563;52.242;7.956;2023-02-13T00:25:23;26.10;;;12.23;;
5121;SDS011;2563;52.242;7.956;2023-02-13T00:27:49;25.50;;;12.57;;
5121;SDS011;2563;52.242;7.956;2023-02-13T00:30:16;27.30;;;13.63;;
5121;SDS011;2563;52.242;7.956;2023-02-13T00:32:41;29.97;;;12.60;;
5121;SDS011;2563;52.242;7.956;2023-02-13T00:35:06;28.97;;;13.23;;
5121;SDS011;2563;52.242;7.956;2023-02-13T00:37:32;28.80;;;13.37;;
5121;SDS011;2563;52.242;7.956;2023-02-13T00:39:58;27.17;;;13.60;;
5121;SDS011;2563;52.242;7.956;2023-02-13T00:42:23;28.23;;;13.67;;
5121;SDS011;2563;52.242;7.956;2023-02-13T00:44:50;30.33;;;13.60;;
5121;SDS011;2563;52.242;7.956;2023-02-13T00:47:17;26.47;;;12.63;;
5121;SDS011;2563;52.242;7.956;2023-02-13T00:49:42;25.87;;;13.33;;
5121;SDS011;2563;52.242;7.956;2023-02-13T00:52:08;22.73;;;12.30;;
5121;SDS011;2563;52.242;7.956;2023-02-13T00:54:33;28.60;;;12.83;;
5121;SDS011;2563;52.242;7.956;2023-02-13T00:56:58;23.83;;;12.50;;
5121;SDS011;2563;52.242;7.956;2023-02-13T00:59:24;26.33;;;12.10;;
5121;SDS011;2563;52.242;7.956;2023-02-13T01:01:49;26.90;;;12.00;;
5121;SDS011;2563;52.242;7.956;2023-02-13T01:04:14;29.00;;;13.20;;
5121;SDS011;2563;52.242;7.956;2023-02-13T01:06:40;26.17;;;12.87;;
5121;SDS011;2563;52.242;7.956;2023-02-13T01:09:05;27.30;;;12.70;;
5121;SDS011;2563;52.242;7.956;2023-02-13T01:11:31;28.23;;;13.00;;
5121;SDS011;2563;52.242;7.956;2023-02-13T01:13:56;25.43;;;12.77;;
5121;SDS011;2563;52.242;7.956;2023-02-13T01:16:22;26.80;;;12.40;;
5121;SDS011;2563;52.242;7.956;2023-02-13T01:18:47;30.77;;;12.10;;
5121;SDS011;2563;52.242;7.956;2023-02-13T01:21:17;27.40;;;12.30;;
5121;SDS011;2563;52.242;7.956;2023-02-13T01:23:44;28.33;;;12.57;;
5121;SDS011;2563;52.242;7.956;2023-02-13T01:26:12;22.57;;;11.17;;
5121;SDS011;2563;52.242;7.956;2023-02-13T01:28:41;24.80;;;12.10;;
5121;SDS011;2563;52.242;7.956;2023-02-13T01:31:06;29.00;;;12.40;;
5121;SDS011;2563;52.242;7.956;2023-02-13T01:33:31;24.97;;;11.57;;
5121;SDS011;2563;52.242;7.956;2023-02-13T01:35:57;25.97;;;11.60;;
5121;SDS011;2563;52.242;7.956;2023-02-13T01:38:24;25.43;;;12.47;;
5121;SDS011;2563;52.242;7.956;2023-02-13T01:40:50;27.47;;;12.97;;
5121;SDS011;2563;52.242;7.956;2023-02-13T01:43:17;23.27;;;11.70;;
5121;SDS011;2563;52.242;7.956;2023-02-13T01:45:44;24.83;;;11.00;;
5121;SDS011;2563;52.242;7.956;2023-02-13T01:48:16;24.67;;;11.50;;
5121;SDS011;2563;52.242;7.956;2023-02-13T01:50:53;23.07;;;11.30;;
5121;SDS011;2563;52.242;7.956;2023-02-13T01:55:55;23.50;;;11.87;;
5121;SDS011;2563;52.242;7.956;2023-02-13T01:58:24;27.13;;;12.23;;
5121;SDS011;2563;52.242;7.956;2023-02-13T02:00:53;22.73;;;11.07;;
5121;SDS011;2563;52.242;7.956;2023-02-13T02:03:20;26.07;;;11.60;;
5121;SDS011;2563;52.242;7.956;2023-02-13T02:05:51;25.00;;;10.77;;
5121;SDS011;2563;52.242;7.956;2023-02-13T02:08:19;25.80;;;12.00;;
5121;SDS011;2563;52.242;7.956;2023-02-13T02:10:45;28.60;;;12.50;;
5121;SDS011;2563;52.242;7.956;2023-02-13T02:15:37;28.50;;;12.23;;
5121;SDS011;2563;52.242;7.956;2023-02-13T02:18:14;23.43;;;11.50;;
5121;SDS011;2563;52.242;7.956;2023-02-13T02:32:36;23.23;;;10.33;;
5121;SDS011;2563;52.242;7.956;2023-02-13T02:48:25;21.20;;;9.43;;
5121;SDS011;2563;52.242;7.956;2023-02-13T02:51:20;21.90;;;9.70;;
5121;SDS011;2563;52.242;7.956;2023-02-13T02:57:00;23.33;;;9.80;;
5121;SDS011;2563;52.242;7.956;2023-02-13T02:59:33;22.80;;;10.33;;
5121;SDS011;2563;52.242;7.956;2023-02-13T03:02:20;25.47;;;10.73;;
5121;SDS011;2563;52.242;7.956;2023-02-13T03:05:07;23.30;;;10.50;;
5121;SDS011;2563;52.242;7.956;2023-02-13T03:08:02;24.07;;;10.40;;
5121;SDS011;2563;52.242;7.956;2023-02-13T03:10:30;25.60;;;10.40;;
5121;SDS011;2563;52.242;7.956;2023-02-13T03:13:27;20.93;;;9.23;;
5121;SDS011;2563;52.242;7.956;2023-02-13T03:16:14;24.10;;;10.20;;
5121;SDS011;2563;52.242;7.956;2023-02-13T03:19:01;22.30;;;10.07;;
5121;SDS011;2563;52.242;7.956;2023-02-13T03:27:10;23.20;;;9.70;;
5121;SDS011;2563;52.242;7.956;2023-02-13T03:38:46;22.07;;;10.57;;
5121;SDS011;2563;52.242;7.956;2023-02-13T03:41:33;25.70;;;11.00;;
5121;SDS011;2563;52.242;7.956;2023-02-13T03:46:38;24.60;;;10.53;;
5121;SDS011;2563;52.242;7.956;2023-02-13T03:49:09;28.23;;;10.33;;
5121;SDS011;2563;52.242;7.956;2023-02-13T03:52:06;22.70;;;9.97;;
5121;SDS011;2563;52.242;7.956;2023-02-13T03:54:42;25.83;;;10.57;;
5121;SDS011;2563;52.242;7.956;2023-02-13T03:57:28;24.20;;;10.23;;
5121;SDS011;2563;52.242;7.956;2023-02-13T04:00:16;21.73;;;9.03;;
5121;SDS011;2563;52.242;7.956;2023-02-13T04:05:29;23.60;;;9.80;;
5121;SDS011;2563;52.242;7.956;2023-02-13T04:08:00;25.40;;;9.87;;
5121;SDS011;2563;52.242;7.956;2023-02-13T04:10:26;31.67;;;10.30;;
5121;SDS011;2563;52.242;7.956;2023-02-13T04:15:55;22.83;;;10.10;;
5121;SDS011;2563;52.242;7.956;2023-02-13T04:18:29;32.67;;;10.40;;
5121;SDS011;2563;52.242;7.956;2023-02-13T04:20:56;28.07;;;11.23;;
5121;SDS011;2563;52.242;7.956;2023-02-13T04:23:25;24.67;;;10.57;;
5121;SDS011;2563;52.242;7.956;2023-02-13T04:25:51;21.47;;;9.60;;
5121;SDS011;2563;52.242;7.956;2023-02-13T04:28:19;22.67;;;9.33;;
5121;SDS011;2563;52.242;7.956;2023-02-13T04:30:45;24.70;;;9.80;;
5121;SDS011;2563;52.242;7.956;2023-02-13T04:33:10;25.17;;;9.90;;
5121;SDS011;2563;52.242;7.956;2023-02-13T04:35:35;25.27;;;9.63;;
5121;SDS011;2563;52.242;7.956;2023-02-13T04:38:01;27.77;;;10.37;;
5121;SDS011;2563;52.242;7.956;2023-02-13T04:40:26;22.17;;;8.87;;
5121;SDS011;2563;52.242;7.956;2023-02-13T04:42:52;23.00;;;10.00;;
5121;SDS011;2563;52.242;7.956;2023-02-13T04:45:17;18.60;;;8.37;;
5121;SDS011;2563;52.242;7.956;2023-02-13T04:47:48;24.70;;;9.40;;
5121;SDS011;2563;52.242;7.956;2023-02-13T04:50:15;21.10;;;9.50;;
5121;SDS011;2563;52.242;7.956;2023-02-13T04:52:40;26.23;;;10.00;;
5121;SDS011;2563;52.242;7.956;2023-02-13T04:55:06;23.83;;;10.43;;
5121;SDS011;2563;52.242;7.956;2023-02-13T04:57:31;24.73;;;9.23;;
5121;SDS011;2563;52.242;7.956;2023-02-13T04:59:57;26.07;;;10.67;;
5121;SDS011;2563;52.242;7.956;2023-02-13T05:02:22;22.50;;;9.53;;
5121;SDS011;2563;52.242;7.956;2023-02-13T05:04:47;23.80;;;9.33;;
5121;SDS011;2563;52.242;7.956;2023-02-13T05:07:13;20.70;;;8.47;;
5121;SDS011;2563;52.242;7.956;2023-02-13T05:09:38;20.40;;;9.10;;
5121;SDS011;2563;52.242;7.956;2023-02-13T05:12:03;26.47;;;9.60;;
5121;SDS011;2563;52.242;7.956;2023-02-13T05:14:29;24.10;;;10.40;;
5121;SDS011;2563;52.242;7.956;2023-02-13T05:16:54;21.40;;;9.57;;
5121;SDS011;2563;52.242;7.956;2023-02-13T05:19:20;24.97;;;9.13;;
5121;SDS011;2563;52.242;7.956;2023-02-13T05:21:45;19.53;;;9.00;;
5121;SDS011;2563;52.242;7.956;2023-02-13T05:24:29;27.10;;;9.80;;
5121;SDS011;2563;52.242;7.956;2023-02-13T05:26:54;21.17;;;9.03;;
5121;SDS011;2563;52.242;7.956;2023-02-13T05:29:20;23.43;;;8.77;;
5121;SDS011;2563;52.242;7.956;2023-02-13T05:31:53;22.00;;;9.47;;
5121;SDS011;2563;52.242;7.956;2023-02-13T05:34:21;23.07;;;9.40;;
5121;SDS011;2563;52.242;7.956;2023-02-13T05:36:47;22.77;;;10.17;;
5121;SDS011;2563;52.242;7.956;2023-02-13T05:39:13;24.53;;;9.73;;
5121;SDS011;2563;52.242;7.956;2023-02-13T05:41:39;22.97;;;9.43;;
5121;SDS011;2563;52.242;7.956;2023-02-13T05:44:06;25.50;;;9.67;;
5121;SDS011;2563;52.242;7.956;2023-02-13T05:46:31;22.40;;;9.37;;
5121;SDS011;2563;52.242;7.956;2023-02-13T05:48:57;23.90;;;9.80;;
5121;SDS011;2563;52.242;7.956;2023-02-13T05:51:22;24.50;;;9.00;;
5121;SDS011;2563;52.242;7.956;2023-02-13T05:53:47;21.53;;;9.57;;
5121;SDS011;2563;52.242;7.956;2023-02-13T05:56:13;21.27;;;8.73;;
5121;SDS011;2563;52.242;7.956;2023-02-13T05:58:38;25.97;;;9.67;;
5121;SDS011;2563;52.242;7.956;2023-02-13T06:01:03;22.37;;;9.30;;
5121;SDS011;2563;52.242;7.956;2023-02-13T06:03:30;21.43;;;9.03;;
5121;SDS011;2563;52.242;7.956;2023-02-13T06:05:56;22.60;;;8.87;;
5121;SDS011;2563;52.242;7.956;2023-02-13T06:08:23;19.40;;;8.33;;
5121;SDS011;2563;52.242;7.956;2023-02-13T06:10:50;21.80;;;8.80;;
5121;SDS011;2563;52.242;7.956;2023-02-13T06:13:16;20.50;;;8.73;;
5121;SDS011;2563;52.242;7.956;2023-02-13T06:15:43;20.40;;;8.20;;
5121;SDS011;2563;52.242;7.956;2023-02-13T06:18:09;24.30;;;8.10;;
5121;SDS011;2563;52.242;7.956;2023-02-13T06:20:34;20.80;;;8.80;;
5121;SDS011;2563;52.242;7.956;2023-02-13T06:23:01;17.43;;;8.00;;
5121;SDS011;2563;52.242;7.956;2023-02-13T06:25:26;20.10;;;8.23;;
5121;SDS011;2563;52.242;7.956;2023-02-13T06:27:52;20.50;;;8.57;;
5121;SDS011;2563;52.242;7.956;2023-02-13T06:30:18;21.90;;;8.87;;
5121;SDS011;2563;52.242;7.956;2023-02-13T06:32:47;22.17;;;8.73;;
5121;SDS011;2563;52.242;7.956;2023-02-13T06:35:13;20.70;;;8.60;;
5121;SDS011;2563;52.242;7.956;2023-02-13T06:37:39;22.67;;;9.23;;
5121;SDS011;2563;52.242;7.956;2023-02-13T06:40:08;18.33;;;7.30;;
5121;SDS011;2563;52.242;7.956;2023-02-13T06:42:34;17.23;;;7.30;;
5121;SDS011;2563;52.242;7.956;2023-02-13T06:45:00;20.00;;;8.40;;
5121;SDS011;2563;52.242;7.956;2023-02-13T06:47:25;22.57;;;8.10;;
5121;SDS011;2563;52.242;7.956;2023-02-13T06:49:50;21.43;;;8.53;;
5121;SDS011;2563;52.242;7.956;2023-02-13T06:52:16;19.03;;;8.00;;
5121;SDS011;2563;52.242;7.956;2023-02-13T06:54:41;19.47;;;8.37;;
5121;SDS011;2563;52.242;7.956;2023-02-13T06:57:06;25.53;;;9.80;;
5121;SDS011;2563;52.242;7.956;2023-02-13T06:59:32;22.47;;;9.23;;
5121;SDS011;2563;52.242;7.956;2023-02-13T07:01:57;24.63;;;8.90;;
5121;SDS011;2563;52.242;7.956;2023-02-13T07:04:23;20.07;;;8.30;;
5121;SDS011;2563;52.242;7.956;2023-02-13T07:06:48;23.37;;;9.77;;
5121;SDS011;2563;52.242;7.956;2023-02-13T07:09:13;19.97;;;8.70;;
5121;SDS011;2563;52.242;7.956;2023-02-13T07:11:39;22.13;;;7.87;;
5121;SDS011;2563;52.242;7.956;2023-02-13T07:14:07;21.07;;;8.40;;
5121;SDS011;2563;52.242;7.956;2023-02-13T07:16:33;22.10;;;9.13;;
5121;SDS011;2563;52.242;7.956;2023-02-13T07:18:59;20.40;;;8.10;;
5121;SDS011;2563;52.242;7.956;2023-02-13T07:21:24;20.40;;;8.43;;
5121;SDS011;2563;52.242;7.956;2023-02-13T07:23:50;19.83;;;8.80;;
5121;SDS011;2563;52.242;7.956;2023-02-13T07:26:16;21.20;;;8.27;;
5121;SDS011;2563;52.242;7.956;2023-02-13T07:28:41;21.03;;;8.50;;
5121;SDS011;2563;52.242;7.956;2023-02-13T07:31:06;23.07;;;9.23;;
5121;SDS011;2563;52.242;7.956;2023-02-13T07:33:32;22.00;;;9.93;;
5121;SDS011;2563;52.242;7.956;2023-02-13T07:35:58;22.90;;;8.67;;
5121;SDS011;2563;52.242;7.956;2023-02-13T07:38:24;19.23;;;8.73;;
5121;SDS011;2563;52.242;7.956;2023-02-13T07:40:50;22.13;;;8.20;;
5121;SDS011;2563;52.242;7.956;2023-02-13T07:43:15;21.33;;;9.13;;
5121;SDS011;2563;52.242;7.956;2023-02-13T07:45:40;24.70;;;9.03;;
5121;SDS011;2563;52.242;7.956;2023-02-13T07:48:06;25.37;;;10.50;;
5121;SDS011;2563;52.242;7.956;2023-02-13T07:50:31;26.30;;;10.03;;
5121;SDS011;2563;52.242;7.956;2023-02-13T07:52:58;23.73;;;9.03;;
5121;SDS011;2563;52.242;7.956;2023-02-13T07:55:25;21.33;;;9.47;;
5121;SDS011;2563;52.242;7.956;2023-02-13T07:57:51;23.60;;;9.50;;
5121;SDS011;2563;52.242;7.956;2023-02-13T08:00:16;23.00;;;10.03;;
5121;SDS011;2563;52.242;7.956;2023-02-13T08:02:43;24.83;;;10.73;;
5121;SDS011;2563;52.242;7.956;2023-02-13T08:05:09;22.87;;;9.47;;
5121;SDS011;2563;52.242;7.956;2023-02-13T08:07:34;26.40;;;10.87;;
5121;SDS011;2563;52.242;7.956;2023-02-13T08:10:00;20.90;;;9.37;;
5121;SDS011;2563;52.242;7.956;2023-02-13T08:12:44;21.67;;;9.37;;
5121;SDS011;2563;52.242;7.956;2023-02-13T08:15:10;18.53;;;7.97;;
5121;SDS011;2563;52.242;7.956;2023-02-13T08:17:36;17.00;;;7.50;;
5121;SDS011;2563;52.242;7.956;2023-02-13T08:20:02;18.10;;;7.30;;
5121;SDS011;2563;52.242;7.956;2023-02-13T08:22:28;22.20;;;6.77;;
5121;SDS011;2563;52.242;7.956;2023-02-13T08:24:53;18.40;;;8.17;;
5121;SDS011;2563;52.242;7.956;2023-02-13T08:27:18;17.10;;;7.03;;
5121;SDS011;2563;52.242;7.956;2023-02-13T08:29:44;13.53;;;6.27;;
5121;SDS011;2563;52.242;7.956;2023-02-13T08:32:09;13.60;;;6.60;;
5121;SDS011;2563;52.242;7.956;2023-02-13T08:34:34;16.50;;;6.90;;
5121;SDS011;2563;52.242;7.956;2023-02-13T08:37:00;15.10;;;6.33;;
5121;SDS011;2563;52.242;7.956;2023-02-13T08:39:26;16.60;;;7.27;;
5121;SDS011;2563;52.242;7.956;2023-02-13T08:41:52;15.50;;;6.90;;
5121;SDS011;2563;52.242;7.956;2023-02-13T08:44:17;17.80;;;7.60;;
5121;SDS011;2563;52.242;7.956;2023-02-13T08:46:42;18.63;;;6.70;;
5121;SDS011;2563;52.242;7.956;2023-02-13T08:49:08;20.23;;;7.13;;
5121;SDS011;2563;52.242;7.956;2023-02-13T08:51:33;17.00;;;6.57;;
5121;SDS011;2563;52.242;7.956;2023-02-13T08:53:58;16.27;;;7.33;;
5121;SDS011;2563;52.242;7.956;2023-02-13T08:56:24;14.90;;;6.50;;
5121;SDS011;2563;52.242;7.956;2023-02-13T08:58:49;16.70;;;7.33;;
5121;SDS011;2563;52.242;7.956;2023-02-13T09:01:15;16.70;;;6.80;;
5121;SDS011;2563;52.242;7.956;2023-02-13T09:03:41;16.80;;;7.10;;
5121;SDS011;2563;52.242;7.956;2023-02-13T09:06:06;18.00;;;7.90;;
5121;SDS011;2563;52.242;7.956;2023-02-13T09:08:33;17.70;;;7.40;;
5121;SDS011;2563;52.242;7.956;2023-02-13T09:11:00;17.70;;;6.03;;
5121;SDS011;2563;52.242;7.956;2023-02-13T09:13:28;19.67;;;7.60;;
5121;SDS011;2563;52.242;7.956;2023-02-13T09:15:57;18.63;;;7.37;;
5121;SDS011;2563;52.242;7.956;2023-02-13T09:18:24;17.83;;;7.53;;
5121;SDS011;2563;52.242;7.956;2023-02-13T09:20:49;16.57;;;7.27;;
5121;SDS011;2563;52.242;7.956;2023-02-13T09:23:14;17.97;;;7.27;;
5121;SDS011;2563;52.242;7.956;2023-02-13T09:25:40;15.73;;;6.77;;
5121;SDS011;2563;52.242;7.956;2023-02-13T09:28:05;16.60;;;7.80;;
5121;SDS011;2563;52.242;7.956;2023-02-13T09:30:30;21.33;;;7.60;;
5121;SDS011;2563;52.242;7.956;2023-02-13T09:32:56;16.67;;;7.27;;
5121;SDS011;2563;52.242;7.956;2023-02-13T09:35:21;18.50;;;8.00;;
5121;SDS011;2563;52.242;7.956;2023-02-13T09:37:47;15.77;;;7.33;;
5121;SDS011;2563;52.242;7.956;2023-02-13T09:43:06;21.10;;;8.30;;
5121;SDS011;2563;52.242;7.956;2023-02-13T09:45:37;15.67;;;7.37;;
5121;SDS011;2563;52.242;7.956;2023-02-13T09:48:04;21.07;;;8.00;;
5121;SDS011;2563;52.242;7.956;2023-02-13T09:50:30;17.87;;;8.20;;
5121;SDS011;2563;52.242;7.956;2023-02-13T09:52:59;17.90;;;7.33;;
5121;SDS011;2563;52.242;7.956;2023-02-13T09:58:02;20.57;;;8.07;;
5121;SDS011;2563;52.242;7.956;2023-02-13T10:00:40;20.80;;;8.53;;
5121;SDS011;2563;52.242;7.956;2023-02-13T10:03:18;16.90;;;7.80;;
5121;SDS011;2563;52.242;7.956;2023-02-13T10:11:20;22.73;;;7.40;;
5121;SDS011;2563;52.242;7.956;2023-02-13T10:14:17;16.17;;;7.27;;
5121;SDS011;2563;52.242;7.956;2023-02-13T10:16:47;21.03;;;7.90;;
5121;SDS011;2563;52.242;7.956;2023-02-13T10:19:28;16.07;;;7.57;;
5121;SDS011;2563;52.242;7.956;2023-02-13T10:21:59;13.70;;;6.23;;
5121;SDS011;2563;52.242;7.956;2023-02-13T10:24:35;12.93;;;6.50;;
5121;SDS011;2563;52.242;7.956;2023-02-13T10:39:29;16.10;;;7.40;;
5121;SDS011;2563;52.242;7.956;2023-02-13T10:50:06;16.17;;;6.40;;
5121;SDS011;2563;52.242;7.956;2023-02-13T11:03:20;15.67;;;7.40;;
5121;SDS011;2563;52.242;7.956;2023-02-13T11:05:48;15.17;;;7.90;;
5121;SDS011;2563;52.242;7.956;2023-02-13T11:08:23;16.50;;;7.53;;
5121;SDS011;2563;52.242;7.956;2023-02-13T11:10:57;14.17;;;6.30;;
5121;SDS011;2563;52.242;7.956;2023-02-13T11:13:26;20.13;;;9.90;;
5121;SDS011;2563;52.242;7.956;2023-02-13T11:15:57;16.33;;;8.03;;
5121;SDS011;2563;52.242;7.956;2023-02-13T11:18:26;18.03;;;8.13;;
5121;SDS011;2563;52.242;7.956;2023-02-13T11:21:36;17.03;;;8.83;;
5121;SDS011;2563;52.242;7.956;2023-02-13T11:23:58;17.40;;;7.70;;
5121;SDS011;2563;52.242;7.956;2023-02-13T11:26:26;15.03;;;7.10;;
5121;SDS011;2563;52.242;7.956;2023-02-13T11:28:57;26.80;;;7.67;;
5121;SDS011;2563;52.242;7.956;2023-02-13T11:33:54;15.07;;;7.27;;
5121;SDS011;2563;52.242;7.956;2023-02-13T11:36:24;14.63;;;8.10;;
5121;SDS011;2563;52.242;7.956;2023-02-13T11:39:05;15.03;;;6.93;;
5121;SDS011;2563;52.242;7.956;2023-02-13T11:41:42;17.43;;;7.90;;
5121;SDS011;2563;52.242;7.956;2023-02-13T11:44:19;15.60;;;7.30;;
5121;SDS011;2563;52.242;7.956;2023-02-13T11:46:52;13.37;;;7.33;;
5121;SDS011;2563;52.242;7.956;2023-02-13T11:51:50;14.70;;;7.60;;
5121;SDS011;2563;52.242;7.956;2023-02-13T11:56:52;15.90;;;7.73;;
5121;SDS011;2563;52.242;7.956;2023-02-13T11:59:24;16.67;;;7.50;;
5121;SDS011;2563;52.242;7.956;2023-02-13T12:02:01;16.70;;;7.40;;
5121;SDS011;2563;52.242;7.956;2023-02-13T12:04:26;14.83;;;7.60;;
5121;SDS011;2563;52.242;7.956;2023-02-13T12:06:59;13.43;;;6.67;;
5121;SDS011;2563;52.242;7.956;2023-02-13T12:09:36;12.60;;;6.57;;
5121;SDS011;2563;52.242;7.956;2023-02-13T12:12:03;15.03;;;6.60;;
5121;SDS011;2563;52.242;7.956;2023-02-13T12:14:30;15.80;;;7.10;;
5121;SDS011;2563;52.242;7.956;2023-02-13T12:17:03;14.50;;;7.40;;
5121;SDS011;2563;52.242;7.956;2023-02-13T12:25:02;15.40;;;7.10;;
5121;SDS011;2563;52.242;7.956;2023-02-13T12:27:38;15.60;;;7.30;;
5121;SDS011;2563;52.242;7.956;2023-02-13T12:41:30;16.37;;;6.60;;
5121;SDS011;2563;52.242;7.956;2023-02-13T13:16:48;13.50;;;6.57;;
5121;SDS011;2563;52.242;7.956;2023-02-13T13:19:22;16.60;;;6.70;;
5121;SDS011;2563;52.242;7.956;2023-02-13T13:27:16;14.50;;;6.70;;
5121;SDS011;2563;52.242;7.956;2023-02-13T13:30:32;11.87;;;6.27;;
5121;SDS011;2563;52.242;7.956;2023-02-13T13:32:53;17.50;;;7.10;;
5121;SDS011;2563;52.242;7.956;2023-02-13T13:35:24;12.20;;;6.33;;
5121;SDS011;2563;52.242;7.956;2023-02-13T13:37:55;11.10;;;5.60;;
5121;SDS011;2563;52.242;7.956;2023-02-13T13:43:20;13.63;;;6.03;;
5121;SDS011;2563;52.242;7.956;2023-02-13T13:46:07;12.43;;;6.60;;
5121;SDS011;2563;52.242;7.956;2023-02-13T13:51:29;12.73;;;6.37;;
5121;SDS011;2563;52.242;7.956;2023-02-13T14:07:48;15.40;;;6.20;;
5121;SDS011;2563;52.242;7.956;2023-02-13T14:13:05;11.27;;;5.60;;
5121;SDS011;2563;52.242;7.956;2023-02-13T14:31:26;10.90;;;6.30;;
5121;SDS011;2563;52.242;7.956;2023-02-13T14:34:02;13.63;;;7.10;;
5121;SDS011;2563;52.242;7.956;2023-02-13T14:36:35;11.07;;;6.23;;
5121;SDS011;2563;52.242;7.956;2023-02-13T14:41:58;11.83;;;6.43;;
5121;SDS011;2563;52.242;7.956;2023-02-13T14:44:44;13.13;;;6.90;;
5121;SDS011;2563;52.242;7.956;2023-02-13T14:49:44;10.20;;;5.87;;
5121;SDS011;2563;52.242;7.956;2023-02-13T14:52:14;11.63;;;6.40;;
5121;SDS011;2563;52.242;7.956;2023-02-13T14:54:47;12.53;;;6.70;;
5121;SDS011;2563;52.242;7.956;2023-02-13T14:57:19;11.53;;;5.80;;
5121;SDS011;2563;52.242;7.956;2023-02-13T14:59:54;16.33;;;6.23;;
5121;SDS011;2563;52.242;7.956;2023-02-13T15:02:30;13.17;;;6.93;;
5121;SDS011;2563;52.242;7.956;2023-02-13T15:05:06;12.57;;;6.13;;
5121;SDS011;2563;52.242;7.956;2023-02-13T15:07:39;16.33;;;5.40;;
5121;SDS011;2563;52.242;7.956;2023-02-13T15:12:59;11.77;;;6.23;;
5121;SDS011;2563;52.242;7.956;2023-02-13T15:15:26;10.80;;;5.73;;
5121;SDS011;2563;52.242;7.956;2023-02-13T15:18:17;11.03;;;5.50;;
5121;SDS011;2563;52.242;7.956;2023-02-13T15:20:43;9.50;;;5.60;;
5121;SDS011;2563;52.242;7.956;2023-02-13T15:23:20;10.87;;;6.13;;
5121;SDS011;2563;52.242;7.956;2023-02-13T15:25:47;12.50;;;6.27;;
5121;SDS011;2563;52.242;7.956;2023-02-13T15:28:20;11.43;;;5.67;;
5121;SDS011;2563;52.242;7.956;2023-02-13T15:31:05;11.60;;;6.03;;
5121;SDS011;2563;52.242;7.956;2023-02-13T15:33:48;11.70;;;6.20;;
5121;SDS011;2563;52.242;7.956;2023-02-13T15:36:16;9.47;;;5.20;;
5121;SDS011;2563;52.242;7.956;2023-02-13T15:38:43;10.43;;;5.73;;
5121;SDS011;2563;52.242;7.956;2023-02-13T15:41:10;14.90;;;5.63;;
5121;SDS011;2563;52.242;7.956;2023-02-13T15:43:44;10.30;;;5.90;;
5121;SDS011;2563;52.242;7.956;2023-02-13T15:46:19;12.57;;;6.30;;
5121;SDS011;2563;52.242;7.956;2023-02-13T15:48:48;13.23;;;6.47;;
5121;SDS011;2563;52.242;7.956;2023-02-13T15:51:22;13.37;;;6.20;;
5121;SDS011;2563;52.242;7.956;2023-02-13T15:53:55;12.40;;;6.10;;
5121;SDS011;2563;52.242;7.956;2023-02-13T15:56:22;12.60;;;6.00;;
5121;SDS011;2563;52.242;7.956;2023-02-13T15:58:48;12.50;;;6.23;;
5121;SDS011;2563;52.242;7.956;2023-02-13T16:01:14;13.17;;;6.00;;
5121;SDS011;2563;52.242;7.956;2023-02-13T16:03:41;11.30;;;6.00;;
5121;SDS011;2563;52.242;7.956;2023-02-13T16:06:16;13.87;;;6.80;;
5121;SDS011;2563;52.242;7.956;2023-02-13T16:08:56;17.40;;;6.73;;
5121;SDS011;2563;52.242;7.956;2023-02-13T16:19:23;12.27;;;6.03;;
5121;SDS011;2563;52.242;7.956;2023-02-13T16:21:57;11.10;;;5.27;;
5121;SDS011;2563;52.242;7.956;2023-02-13T16:24:26;12.13;;;5.87;;
5121;SDS011;2563;52.242;7.956;2023-02-13T16:26:52;11.50;;;6.50;;
5121;SDS011;2563;52.242;7.956;2023-02-13T16:29:22;12.73;;;6.27;;
5121;SDS011;2563;52.242;7.956;2023-02-13T16:31:50;11.30;;;5.90;;
5121;SDS011;2563;52.242;7.956;2023-02-13T16:36:53;13.23;;;6.30;;
5121;SDS011;2563;52.242;7.956;2023-02-13T16:39:20;16.73;;;7.23;;
5121;SDS011;2563;52.242;7.956;2023-02-13T16:41:57;15.17;;;6.60;;
5121;SDS011;2563;52.242;7.956;2023-02-13T16:44:24;16.57;;;8.23;;
5121;SDS011;2563;52.242;7.956;2023-02-13T16:46:54;15.80;;;7.10;;
5121;SDS011;2563;52.242;7.956;2023-02-13T16:49:36;17.47;;;7.50;;
5121;SDS011;2563;52.242;7.956;2023-02-13T16:52:23;25.97;;;7.40;;
5121;SDS011;2563;52.242;7.956;2023-02-13T16:57:32;15.03;;;7.27;;
5121;SDS011;2563;52.242;7.956;2023-02-13T16:59:59;18.73;;;7.80;;
5121;SDS011;2563;52.242;7.956;2023-02-13T17:04:56;16.13;;;7.70;;
5121;SDS011;2563;52.242;7.956;2023-02-13T17:07:34;22.37;;;8.07;;
5121;SDS011;2563;52.242;7.956;2023-02-13T17:10:00;15.90;;;7.73;;
5121;SDS011;2563;52.242;7.956;2023-02-13T17:12:29;20.70;;;8.20;;
5121;SDS011;2563;52.242;7.956;2023-02-13T17:14:59;15.73;;;7.20;;
5121;SDS011;2563;52.242;7.956;2023-02-13T17:17:25;17.17;;;7.70;;
5121;SDS011;2563;52.242;7.956;2023-02-13T17:19:53;20.33;;;7.67;;
5121;SDS011;2563;52.242;7.956;2023-02-13T17:22:38;23.07;;;7.87;;
5121;SDS011;2563;52.242;7.956;2023-02-13T17:25:07;17.53;;;8.30;;
5121;SDS011;2563;52.242;7.956;2023-02-13T17:27:39;16.23;;;7.83;;
5121;SDS011;2563;52.242;7.956;2023-02-13T17:30:05;16.93;;;8.30;;
5121;SDS011;2563;52.242;7.956;2023-02-13T17:32:31;22.43;;;9.70;;
5121;SDS011;2563;52.242;7.956;2023-02-13T17:34:56;17.23;;;9.00;;
5121;SDS011;2563;52.242;7.956;2023-02-13T17:37:23;19.17;;;10.13;;
5121;SDS011;2563;52.242;7.956;2023-02-13T17:39:50;19.40;;;10.47;;
5121;SDS011;2563;52.242;7.956;2023-02-13T17:42:21;20.87;;;9.50;;
5121;SDS011;2563;52.242;7.956;2023-02-13T17:44:51;19.87;;;8.80;;
5121;SDS011;2563;52.242;7.956;2023-02-13T17:47:18;21.60;;;9.20;;
5121;SDS011;2563;52.242;7.956;2023-02-13T17:49:43;20.77;;;9.43;;
5121;SDS011;2563;52.242;7.956;2023-02-13T17:52:11;17.30;;;8.40;;
5121;SDS011;2563;52.242;7.956;2023-02-13T17:54:40;18.43;;;8.33;;
5121;SDS011;2563;52.242;7.956;2023-02-13T17:57:06;21.83;;;10.87;;
5121;SDS011;2563;52.242;7.956;2023-02-13T17:59:31;21.17;;;9.37;;
5121;SDS011;2563;52.242;7.956;2023-02-13T18:01:56;19.83;;;9.20;;
5121;SDS011;2563;52.242;7.956;2023-02-13T18:04:21;19.60;;;9.07;;
5121;SDS011;2563;52.242;7.956;2023-02-13T18:06:49;22.50;;;9.70;;
5121;SDS011;2563;52.242;7.956;2023-02-13T18:09:16;22.27;;;10.00;;
5121;SDS011;2563;52.242;7.956;2023-02-13T18:11:41;21.40;;;10.70;;
5121;SDS011;2563;52.242;7.956;2023-02-13T18:14:06;22.43;;;10.33;;
5121;SDS011;2563;52.242;7.956;2023-02-13T18:16:32;23.83;;;9.97;;
5121;SDS011;2563;52.242;7.956;2023-02-13T18:18:57;24.57;;;11.27;;
5121;SDS011;2563;52.242;7.956;2023-02-13T18:21:22;24.13;;;11.03;;
5121;SDS011;2563;52.242;7.956;2023-02-13T18:23:51;19.90;;;10.20;;
5121;SDS011;2563;52.242;7.956;2023-02-13T18:26:17;24.90;;;10.10;;
5121;SDS011;2563;52.242;7.956;2023-02-13T18:28:43;22.70;;;10.27;;
5121;SDS011;2563;52.242;7.956;2023-02-13T18:31:08;26.37;;;10.97;;
5121;SDS011;2563;52.242;7.956;2023-02-13T18:33:35;28.07;;;11.67;;
5121;SDS011;2563;52.242;7.956;2023-02-13T18:36:00;24.57;;;11.47;;
5121;SDS011;2563;52.242;7.956;2023-02-13T18:38:27;21.60;;;11.40;;
5121;SDS011;2563;52.242;7.956;2023-02-13T18:40:53;22.33;;;11.10;;
5121;SDS011;2563;52.242;7.956;2023-02-13T18:43:19;23.33;;;12.07;;
5121;SDS011;2563;52.242;7.956;2023-02-13T18:45:45;21.80;;;10.83;;
5121;SDS011;2563;52.242;7.956;2023-02-13T18:48:11;23.10;;;11.37;;
5121;SDS011;2563;52.242;7.956;2023-02-13T18:50:39;31.13;;;13.20;;
5121;SDS011;2563;52.242;7.956;2023-02-13T18:53:05;23.17;;;10.50;;